Climatologie pour Saint-Brevin les Pins
Jour • Résumé pour avril 10, 2017 Système :  Métrique    Anglais   Mixte
« - 1 jour
+ 1 jour »
Jour Semaine Mois Année Personnalisé
  Maximum : Minimum : Moyenne :
Température sous abri : 20.9 °C 7.1 °C 13.1 °C
Point de rosée : 11.9 °C 6.3 °C 9.1 °C
Humidité : 96% 53% 79%
Vitesse du vent : 19.3km/h 0.0km/h 6.4km/h
Rafale : 24.1km/h - -
Direction - - East
Pression : 1027.3 hPa 1023.2 hPa -
Précipitations : 0.0 mm    
Historical Graphs
 
 
Tableau de données pour avril 10, 2017
Heure Tempé Pt rosée Pression Vent Vitesse Rafale Humidité Taux pluie (/hr) Soleil
00:00 10.9 °C 10.3 °C 1023.2 hPa North 4.8 km/h 8.0 km/h 96% 0.0 mm 0 W/m2
00:05 11.1 °C 10.5 °C 1023.2 hPa NNE 8.0 km/h 11.3 km/h 96% 0.0 mm 0 W/m2
00:10 11.3 °C 10.7 °C 1023.2 hPa Calm   12.9 km/h 96% 0.0 mm 0 W/m2
00:15 11.5 °C 10.7 °C 1023.2 hPa NE 6.4 km/h 14.5 km/h 95% 0.0 mm 0 W/m2
00:20 11.6 °C 10.8 °C 1023.2 hPa ENE 1.6 km/h 14.5 km/h 95% 0.0 mm 0 W/m2
00:25 11.7 °C 10.7 °C 1023.2 hPa North 4.8 km/h 16.1 km/h 94% 0.0 mm 0 W/m2
00:30 11.7 °C 10.7 °C 1023.2 hPa ENE 6.4 km/h 16.1 km/h 94% 0.0 mm 0 W/m2
00:40 11.4 °C 10.5 °C 1023.6 hPa North 6.4 km/h 12.9 km/h 94% 0.0 mm 0 W/m2
00:45 11.4 °C 10.4 °C 1023.6 hPa NE 4.8 km/h 14.5 km/h 93% 0.0 mm 0 W/m2
00:50 11.4 °C 10.4 °C 1023.6 hPa NE 4.8 km/h 16.1 km/h 93% 0.0 mm 0 W/m2
00:55 11.4 °C 10.3 °C 1023.6 hPa ENE 11.3 km/h 16.1 km/h 93% 0.0 mm 0 W/m2
01:00 11.3 °C 10.2 °C 1023.6 hPa ENE 6.4 km/h 14.5 km/h 93% 0.0 mm 0 W/m2
01:05 11.2 °C 10.1 °C 1023.6 hPa NE 4.8 km/h 14.5 km/h 93% 0.0 mm 0 W/m2
01:10 11.1 °C 10.0 °C 1023.6 hPa ENE 8.0 km/h 14.5 km/h 93% 0.0 mm 0 W/m2
01:15 10.9 °C 9.8 °C 1023.6 hPa NE 3.2 km/h 14.5 km/h 93% 0.0 mm 0 W/m2
01:25 10.7 °C 9.7 °C 1023.6 hPa NE 3.2 km/h 12.9 km/h 94% 0.0 mm 0 W/m2
01:30 10.5 °C 9.6 °C 1023.6 hPa ENE 4.8 km/h 11.3 km/h 94% 0.0 mm 0 W/m2
01:35 10.3 °C 9.4 °C 1023.9 hPa East 3.2 km/h 11.3 km/h 94% 0.0 mm 0 W/m2
01:40 10.3 °C 9.4 °C 1023.6 hPa ENE 4.8 km/h 11.3 km/h 94% 0.0 mm 0 W/m2
01:45 10.3 °C 9.4 °C 1023.9 hPa ENE 6.4 km/h 14.5 km/h 94% 0.0 mm 0 W/m2
01:50 10.2 °C 9.3 °C 1023.9 hPa NNE 1.6 km/h 14.5 km/h 94% 0.0 mm 0 W/m2
01:55 10.1 °C 9.0 °C 1023.9 hPa NE 1.6 km/h 12.9 km/h 93% 0.0 mm 0 W/m2
02:00 10.0 °C 9.1 °C 1023.9 hPa NE 3.2 km/h 14.5 km/h 94% 0.0 mm 0 W/m2
02:10 9.9 °C 9.0 °C 1023.9 hPa NE 11.3 km/h 17.7 km/h 94% 0.0 mm 0 W/m2
02:15 9.9 °C 9.0 °C 1023.9 hPa NE 1.6 km/h 17.7 km/h 94% 0.0 mm 0 W/m2
02:20 9.8 °C 8.8 °C 1023.9 hPa NE 6.4 km/h 14.5 km/h 93% 0.0 mm 0 W/m2
02:25 9.8 °C 8.8 °C 1023.9 hPa North 8.0 km/h 14.5 km/h 93% 0.0 mm 0 W/m2
02:30 9.7 °C 8.6 °C 1023.9 hPa NNE 3.2 km/h 12.9 km/h 93% 0.0 mm 0 W/m2
02:35 9.7 °C 8.6 °C 1023.9 hPa NNE 6.4 km/h 11.3 km/h 93% 0.0 mm 0 W/m2
02:40 9.6 °C 8.5 °C 1023.9 hPa ENE 4.8 km/h 12.9 km/h 93% 0.0 mm 0 W/m2
02:45 9.6 °C 8.5 °C 1023.9 hPa NE 4.8 km/h 12.9 km/h 93% 0.0 mm 0 W/m2
02:55 9.4 °C 8.4 °C 1023.9 hPa NE 6.4 km/h 12.9 km/h 93% 0.0 mm 0 W/m2
03:00 9.4 °C 8.3 °C 1023.9 hPa ENE 1.6 km/h 12.9 km/h 93% 0.0 mm 0 W/m2
03:05 9.3 °C 8.3 °C 1023.9 hPa North 3.2 km/h 14.5 km/h 93% 0.0 mm 0 W/m2
03:10 9.3 °C 8.2 °C 1023.9 hPa ENE 8.0 km/h 14.5 km/h 93% 0.0 mm 0 W/m2
03:15 9.3 °C 8.2 °C 1023.9 hPa NNE 4.8 km/h 12.9 km/h 93% 0.0 mm 0 W/m2
03:20 9.2 °C 8.1 °C 1023.9 hPa North 6.4 km/h 12.9 km/h 93% 0.0 mm 0 W/m2
03:25 9.1 °C 8.0 °C 1023.9 hPa NNE 4.8 km/h 9.7 km/h 93% 0.0 mm 0 W/m2
03:30 9.1 °C 8.0 °C 1023.9 hPa NNE 1.6 km/h 9.7 km/h 93% 0.0 mm 0 W/m2
03:40 8.8 °C 7.8 °C 1023.9 hPa ENE 3.2 km/h 11.3 km/h 93% 0.0 mm 0 W/m2
03:45 8.8 °C 7.8 °C 1023.9 hPa NE 4.8 km/h 11.3 km/h 93% 0.0 mm 0 W/m2
03:50 8.8 °C 7.9 °C 1023.9 hPa Calm   9.7 km/h 94% 0.0 mm 0 W/m2
03:55 8.8 °C 7.9 °C 1023.9 hPa NNE 4.8 km/h 9.7 km/h 94% 0.0 mm 0 W/m2
04:00 8.8 °C 7.9 °C 1023.9 hPa North 8.0 km/h 9.7 km/h 94% 0.0 mm 0 W/m2
04:05 8.7 °C 7.8 °C 1023.9 hPa NNE 6.4 km/h 9.7 km/h 94% 0.0 mm 0 W/m2
04:10 8.7 °C 7.8 °C 1023.9 hPa ENE 6.4 km/h 9.7 km/h 94% 0.0 mm 0 W/m2
04:15 8.6 °C 7.6 °C 1023.9 hPa NE 3.2 km/h 9.7 km/h 94% 0.0 mm 0 W/m2
04:25 8.6 °C 7.6 °C 1023.9 hPa NNE 3.2 km/h 9.7 km/h 94% 0.0 mm 0 W/m2
04:30 8.6 °C 7.6 °C 1023.9 hPa NE 3.2 km/h 9.7 km/h 94% 0.0 mm 0 W/m2
04:35 8.5 °C 7.6 °C 1023.9 hPa NE 1.6 km/h 12.9 km/h 94% 0.0 mm 0 W/m2
04:40 8.4 °C 7.5 °C 1023.9 hPa NE 4.8 km/h 12.9 km/h 94% 0.0 mm 0 W/m2
04:45 8.4 °C 7.5 °C 1023.9 hPa NE 1.6 km/h 12.9 km/h 94% 0.0 mm 0 W/m2
04:50 8.4 °C 7.5 °C 1023.9 hPa NNE 3.2 km/h 11.3 km/h 94% 0.0 mm 0 W/m2
04:55 8.3 °C 7.4 °C 1023.9 hPa NE 3.2 km/h 11.3 km/h 94% 0.0 mm 0 W/m2
05:00 8.3 °C 7.4 °C 1023.9 hPa NE 3.2 km/h 11.3 km/h 94% 0.0 mm 0 W/m2
05:10 8.1 °C 7.2 °C 1023.9 hPa NNE 3.2 km/h 9.7 km/h 94% 0.0 mm 0 W/m2
05:15 8.1 °C 7.4 °C 1024.3 hPa North 1.6 km/h 11.3 km/h 95% 0.0 mm 0 W/m2
05:20 8.1 °C 7.1 °C 1023.9 hPa NE 1.6 km/h 11.3 km/h 94% 0.0 mm 0 W/m2
05:25 8.1 °C 7.3 °C 1024.3 hPa NE 3.2 km/h 9.7 km/h 95% 0.0 mm 0 W/m2
05:30 8.1 °C 7.4 °C 1024.3 hPa Calm   11.3 km/h 95% 0.0 mm 0 W/m2
05:35 8.1 °C 7.3 °C 1024.3 hPa North 3.2 km/h 11.3 km/h 95% 0.0 mm 0 W/m2
05:40 7.9 °C 7.1 °C 1024.3 hPa North 8.0 km/h 14.5 km/h 95% 0.0 mm 0 W/m2
05:45 7.9 °C 7.2 °C 1024.3 hPa North 3.2 km/h 14.5 km/h 95% 0.0 mm 0 W/m2
05:55 7.8 °C 7.1 °C 1024.3 hPa NE 4.8 km/h 9.7 km/h 95% 0.0 mm 0 W/m2
06:00 7.9 °C 7.1 °C 1024.3 hPa NNE 4.8 km/h 11.3 km/h 95% 0.0 mm 0 W/m2
06:05 7.8 °C 7.1 °C 1024.3 hPa NNE 6.4 km/h 11.3 km/h 95% 0.0 mm 0 W/m2
06:10 7.9 °C 7.1 °C 1024.3 hPa NNE 1.6 km/h 9.7 km/h 95% 0.0 mm 0 W/m2
06:15 7.9 °C 7.1 °C 1024.3 hPa NNE 3.2 km/h 9.7 km/h 95% 0.0 mm 0 W/m2
06:20 7.7 °C 7.0 °C 1024.3 hPa NE 8.0 km/h 9.7 km/h 95% 0.0 mm 0 W/m2
06:25 7.7 °C 7.0 °C 1024.3 hPa NNE 3.2 km/h 9.7 km/h 95% 0.0 mm 0 W/m2
06:30 7.7 °C 6.9 °C 1024.3 hPa North 8.0 km/h 12.9 km/h 95% 0.0 mm 0 W/m2
06:40 7.6 °C 6.8 °C 1024.3 hPa North 6.4 km/h 12.9 km/h 95% 0.0 mm 0 W/m2
06:45 7.6 °C 6.8 °C 1024.3 hPa NE 4.8 km/h 12.9 km/h 95% 0.0 mm 0 W/m2
06:50 7.5 °C 6.8 °C 1024.3 hPa NNE 4.8 km/h 12.9 km/h 95% 0.0 mm 0 W/m2
06:55 7.5 °C 6.8 °C 1024.3 hPa North 6.4 km/h 12.9 km/h 95% 0.0 mm 0 W/m2
07:00 7.6 °C 6.8 °C 1024.6 hPa North 4.8 km/h 12.9 km/h 95% 0.0 mm 0 W/m2
07:05 7.5 °C 6.8 °C 1024.6 hPa NNE 1.6 km/h 12.9 km/h 95% 0.0 mm 0 W/m2
07:10 7.4 °C 6.6 °C 1024.6 hPa NNE 1.6 km/h 9.7 km/h 95% 0.0 mm 0 W/m2
07:15 7.3 °C 6.6 °C 1024.6 hPa NNE 1.6 km/h 9.7 km/h 95% 0.0 mm 0 W/m2
07:25 7.2 °C 6.4 °C 1024.9 hPa NE 1.6 km/h 9.7 km/h 95% 0.0 mm 0 W/m2
07:30 7.2 °C 6.6 °C 1024.9 hPa North 6.4 km/h 9.7 km/h 96% 0.0 mm 0 W/m2
07:35 7.2 °C 6.6 °C 1024.9 hPa NE 1.6 km/h 9.7 km/h 96% 0.0 mm 5 W/m2
07:40 7.2 °C 6.6 °C 1024.9 hPa North 8.0 km/h 9.7 km/h 96% 0.0 mm 9 W/m2
07:50 7.1 °C 6.5 °C 1024.9 hPa NNW 3.2 km/h 11.3 km/h 96% 0.0 mm 14 W/m2
07:55 7.1 °C 6.5 °C 1024.9 hPa Calm   11.3 km/h 96% 0.0 mm 18 W/m2
08:00 7.1 °C 6.5 °C 1025.3 hPa North 1.6 km/h 9.7 km/h 96% 0.0 mm 21 W/m2
08:10 7.3 °C 6.7 °C 1025.3 hPa Calm   9.7 km/h 96% 0.0 mm 30 W/m2
08:15 7.3 °C 6.7 °C 1025.3 hPa NNE 6.4 km/h 9.7 km/h 96% 0.0 mm 33 W/m2
08:20 7.4 °C 6.8 °C 1025.3 hPa NNE 4.8 km/h 12.9 km/h 96% 0.0 mm 37 W/m2
08:25 7.6 °C 7.0 °C 1025.6 hPa North 6.4 km/h 12.9 km/h 96% 0.0 mm 42 W/m2
08:30 7.8 °C 7.2 °C 1025.6 hPa North 3.2 km/h 12.9 km/h 96% 0.0 mm 95 W/m2
08:35 7.9 °C 7.3 °C 1025.6 hPa NNE 3.2 km/h 9.7 km/h 96% 0.0 mm 113 W/m2
08:40 8.1 °C 7.5 °C 1025.6 hPa NNE 11.3 km/h 14.5 km/h 96% 0.0 mm 128 W/m2
08:45 8.2 °C 7.6 °C 1025.6 hPa North 4.8 km/h 14.5 km/h 96% 0.0 mm 148 W/m2
08:55 8.6 °C 8.0 °C 1025.6 hPa NNW 1.6 km/h 9.7 km/h 96% 0.0 mm 183 W/m2
09:00 8.7 °C 8.1 °C 1025.6 hPa North 3.2 km/h 14.5 km/h 96% 0.0 mm 202 W/m2
09:05 8.9 °C 8.3 °C 1026.0 hPa NNE 9.7 km/h 17.7 km/h 96% 0.0 mm 213 W/m2
09:10 9.1 °C 8.3 °C 1026.0 hPa NNW 8.0 km/h 17.7 km/h 95% 0.0 mm 234 W/m2
09:15 9.2 °C 8.5 °C 1026.0 hPa North 11.3 km/h 17.7 km/h 95% 0.0 mm 251 W/m2
09:20 9.4 °C 8.5 °C 1026.0 hPa NNE 9.7 km/h 17.7 km/h 94% 0.0 mm 260 W/m2
09:25 9.6 °C 8.5 °C 1026.0 hPa NNE 9.7 km/h 16.1 km/h 93% 0.0 mm 267 W/m2
09:30 9.8 °C 8.8 °C 1026.0 hPa NE 8.0 km/h 16.1 km/h 93% 0.0 mm 292 W/m2
09:40 10.3 °C 9.1 °C 1026.0 hPa NE 8.0 km/h 19.3 km/h 92% 0.0 mm 315 W/m2
09:45 10.5 °C 9.1 °C 1026.0 hPa North 3.2 km/h 19.3 km/h 91% 0.0 mm 334 W/m2
09:50 10.6 °C 9.1 °C 1026.0 hPa NE 14.5 km/h 19.3 km/h 91% 0.0 mm 334 W/m2
09:55 10.9 °C 9.3 °C 1026.3 hPa NE 4.8 km/h 19.3 km/h 90% 0.0 mm 367 W/m2
10:00 11.1 °C 9.3 °C 1026.3 hPa NE 6.4 km/h 16.1 km/h 89% 0.0 mm 390 W/m2
10:05 11.1 °C 9.2 °C 1026.3 hPa ENE 3.2 km/h 17.7 km/h 88% 0.0 mm 406 W/m2
10:10 11.2 °C 9.3 °C 1026.3 hPa NE 1.6 km/h 17.7 km/h 88% 0.0 mm 364 W/m2
10:15 11.5 °C 9.4 °C 1026.3 hPa North 11.3 km/h 16.1 km/h 87% 0.0 mm 420 W/m2
10:25 12.1 °C 10.0 °C 1026.3 hPa NNE 3.2 km/h 17.7 km/h 87% 0.0 mm 462 W/m2
10:30 12.4 °C 9.9 °C 1026.3 hPa NNE 4.8 km/h 16.1 km/h 85% 0.0 mm 476 W/m2
10:35 12.6 °C 9.9 °C 1026.3 hPa North 9.7 km/h 16.1 km/h 84% 0.0 mm 492 W/m2
10:40 12.7 °C 9.9 °C 1026.3 hPa NE 19.3 km/h 20.9 km/h 83% 0.0 mm 503 W/m2
10:45 12.9 °C 10.1 °C 1026.3 hPa ENE 3.2 km/h 20.9 km/h 83% 0.0 mm 522 W/m2
10:50 13.2 °C 10.0 °C 1026.3 hPa NNE 12.9 km/h 20.9 km/h 81% 0.0 mm 536 W/m2
10:55 13.3 °C 10.1 °C 1026.3 hPa NNE 8.0 km/h 20.9 km/h 81% 0.0 mm 547 W/m2
11:00 13.3 °C 10.1 °C 1026.3 hPa NE 9.7 km/h 20.9 km/h 81% 0.0 mm 557 W/m2
11:10 13.9 °C 10.0 °C 1026.3 hPa NE 14.5 km/h 20.9 km/h 77% 0.0 mm 580 W/m2
11:20 14.3 °C 10.7 °C 1026.3 hPa NNE 6.4 km/h 19.3 km/h 79% 0.0 mm 617 W/m2
11:25 14.7 °C 10.5 °C 1026.3 hPa East 14.5 km/h 19.3 km/h 76% 0.0 mm 635 W/m2
11:30 14.8 °C 10.6 °C 1026.3 hPa North 6.4 km/h 19.3 km/h 76% 0.0 mm 649 W/m2
11:35 14.9 °C 10.3 °C 1026.6 hPa ENE 3.2 km/h 22.5 km/h 74% 0.0 mm 668 W/m2
11:40 15.3 °C 10.5 °C 1026.6 hPa ENE 14.5 km/h 22.5 km/h 73% 0.0 mm 612 W/m2
11:45 15.0 °C 10.0 °C 1026.6 hPa NE 4.8 km/h 20.9 km/h 72% 0.0 mm 661 W/m2
11:55 15.3 °C 10.1 °C 1026.6 hPa NE 11.3 km/h 17.7 km/h 71% 0.0 mm 636 W/m2
12:00 15.4 °C 10.2 °C 1026.6 hPa NNE 3.2 km/h 20.9 km/h 71% 0.0 mm 686 W/m2
12:05 15.8 °C 10.4 °C 1026.6 hPa ENE 6.4 km/h 20.9 km/h 70% 0.0 mm 686 W/m2
12:10 16.2 °C 11.4 °C 1026.6 hPa ENE 4.8 km/h 19.3 km/h 73% 0.0 mm 745 W/m2
12:15 16.5 °C 10.6 °C 1026.6 hPa NNE 9.7 km/h 17.7 km/h 68% 0.0 mm 742 W/m2
12:20 16.3 °C 10.6 °C 1026.6 hPa ENE 4.8 km/h 19.3 km/h 69% 0.0 mm 733 W/m2
12:25 16.6 °C 11.1 °C 1026.6 hPa ENE 3.2 km/h 19.3 km/h 70% 0.0 mm 643 W/m2
12:30 16.4 °C 10.7 °C 1026.3 hPa Calm   19.3 km/h 69% 0.0 mm 682 W/m2
12:40 17.1 °C 10.9 °C 1026.3 hPa North 4.8 km/h 17.7 km/h 67% 0.0 mm 756 W/m2
12:45 17.2 °C 11.0 °C 1026.3 hPa ENE 12.9 km/h 16.1 km/h 67% 0.0 mm 773 W/m2
12:50 17.2 °C 11.0 °C 1026.3 hPa ENE 11.3 km/h 17.7 km/h 67% 0.0 mm 712 W/m2
12:55 16.9 °C 10.5 °C 1026.3 hPa ENE 6.4 km/h 19.3 km/h 66% 0.0 mm 765 W/m2
13:00 17.3 °C 11.6 °C 1026.3 hPa ENE 6.4 km/h 19.3 km/h 69% 0.0 mm 765 W/m2
13:05 17.3 °C 10.7 °C 1026.3 hPa North 3.2 km/h 16.1 km/h 65% 0.0 mm 770 W/m2
13:10 17.6 °C 10.7 °C 1026.3 hPa NE 9.7 km/h 17.7 km/h 64% 0.0 mm 793 W/m2
13:15 17.9 °C 10.8 °C 1026.3 hPa NNE 11.3 km/h 19.3 km/h 63% 0.0 mm 795 W/m2
13:25 18.1 °C 10.7 °C 1026.3 hPa North 6.4 km/h 22.5 km/h 62% 0.0 mm 796 W/m2
13:30 18.4 °C 10.5 °C 1026.3 hPa NNE 9.7 km/h 20.9 km/h 60% 0.0 mm 796 W/m2
13:35 18.4 °C 11.0 °C 1026.0 hPa NW 16.1 km/h 19.3 km/h 62% 0.0 mm 798 W/m2
13:40 18.3 °C 10.6 °C 1026.0 hPa NE 9.7 km/h 19.3 km/h 61% 0.0 mm 795 W/m2
13:45 18.6 °C 11.4 °C 1026.0 hPa NE 12.9 km/h 20.9 km/h 63% 0.0 mm 810 W/m2
13:50 18.7 °C 11.0 °C 1026.0 hPa NW 3.2 km/h 20.9 km/h 61% 0.0 mm 802 W/m2
13:55 18.8 °C 10.4 °C 1026.0 hPa North 6.4 km/h 17.7 km/h 58% 0.0 mm 798 W/m2
14:00 19.1 °C 11.6 °C 1026.0 hPa ENE 11.3 km/h 16.1 km/h 62% 0.0 mm 821 W/m2
14:10 19.3 °C 11.1 °C 1026.0 hPa North 9.7 km/h 17.7 km/h 59% 0.0 mm 837 W/m2
14:15 19.1 °C 10.9 °C 1025.6 hPa NE 8.0 km/h 17.7 km/h 59% 0.0 mm 738 W/m2
14:20 19.5 °C 11.3 °C 1025.6 hPa NNE 8.0 km/h 17.7 km/h 59% 0.0 mm 921 W/m2
14:25 19.0 °C 11.1 °C 1026.0 hPa North 11.3 km/h 20.9 km/h 60% 0.0 mm 842 W/m2
14:30 19.6 °C 10.9 °C 1026.0 hPa North 9.7 km/h 20.9 km/h 57% 0.0 mm 863 W/m2
14:35 19.9 °C 11.4 °C 1026.0 hPa North 4.8 km/h 17.7 km/h 58% 0.0 mm 810 W/m2
14:40 19.7 °C 10.6 °C 1026.0 hPa North 4.8 km/h 17.7 km/h 56% 0.0 mm 879 W/m2
14:45 19.6 °C 10.8 °C 1025.6 hPa WNW 1.6 km/h 17.7 km/h 57% 0.0 mm 881 W/m2
14:55 19.4 °C 11.7 °C 1025.6 hPa North 12.9 km/h 20.9 km/h 61% 0.0 mm 826 W/m2
15:00 19.6 °C 11.4 °C 1025.6 hPa NE 19.3 km/h 20.9 km/h 59% 0.0 mm 807 W/m2
15:05 19.7 °C 11.2 °C 1025.6 hPa NNE 4.8 km/h 20.9 km/h 58% 0.0 mm 830 W/m2
15:10 19.9 °C 11.9 °C 1025.6 hPa NNW 4.8 km/h 20.9 km/h 60% 0.0 mm 865 W/m2
15:15 19.7 °C 10.7 °C 1025.6 hPa NNE 8.0 km/h 16.1 km/h 56% 0.0 mm 330 W/m2
15:20 19.3 °C 10.6 °C 1025.6 hPa North 4.8 km/h 16.1 km/h 57% 0.0 mm 791 W/m2
15:25 19.7 °C 10.7 °C 1025.6 hPa NNW 16.1 km/h 20.9 km/h 56% 0.0 mm 770 W/m2
15:30 20.0 °C 10.7 °C 1026.0 hPa North 6.4 km/h 20.9 km/h 55% 0.0 mm 763 W/m2
15:40 19.8 °C 10.7 °C 1026.0 hPa NNW 8.0 km/h 19.3 km/h 56% 0.0 mm 636 W/m2
15:45 19.6 °C 11.3 °C 1025.6 hPa North 9.7 km/h 19.3 km/h 59% 0.0 mm 745 W/m2
15:50 19.9 °C 11.1 °C 1025.6 hPa NE 4.8 km/h 19.3 km/h 57% 0.0 mm 756 W/m2
15:55 20.1 °C 10.5 °C 1025.6 hPa North 3.2 km/h 19.3 km/h 54% 0.0 mm 773 W/m2
16:00 20.9 °C 10.9 °C 1025.6 hPa NNE 3.2 km/h 14.5 km/h 53% 0.0 mm 796 W/m2
16:05 20.3 °C 10.4 °C 1025.6 hPa NNE 6.4 km/h 22.5 km/h 53% 0.0 mm 480 W/m2
16:10 19.4 °C 10.2 °C 1025.3 hPa NE 4.8 km/h 22.5 km/h 55% 0.0 mm 346 W/m2
16:15 20.2 °C 11.2 °C 1025.3 hPa North 6.4 km/h 24.1 km/h 56% 0.0 mm 853 W/m2
16:25 20.4 °C 10.5 °C 1025.3 hPa Calm   17.7 km/h 53% 0.0 mm 555 W/m2
16:30 19.6 °C 10.5 °C 1025.3 hPa North 11.3 km/h 22.5 km/h 56% 0.0 mm 587 W/m2
16:35 19.8 °C 10.3 °C 1025.3 hPa NE 8.0 km/h 22.5 km/h 54% 0.0 mm 622 W/m2
16:40 20.3 °C 11.5 °C 1025.3 hPa ENE 14.5 km/h 19.3 km/h 57% 0.0 mm 763 W/m2
16:45 20.6 °C 11.0 °C 1025.3 hPa East 14.5 km/h 19.3 km/h 54% 0.0 mm 719 W/m2
16:50 20.3 °C 10.7 °C 1025.3 hPa ENE 17.7 km/h 17.7 km/h 54% 0.0 mm 213 W/m2
16:55 19.1 °C 10.1 °C 1025.3 hPa ENE 9.7 km/h 17.7 km/h 56% 0.0 mm 209 W/m2
17:00 19.6 °C 10.5 °C 1024.9 hPa North 8.0 km/h 17.7 km/h 56% 0.0 mm 649 W/m2
17:10 19.9 °C 10.3 °C 1024.9 hPa ENE 4.8 km/h 22.5 km/h 54% 0.0 mm 258 W/m2
17:20 19.2 °C 10.4 °C 1024.9 hPa NE 8.0 km/h 19.3 km/h 57% 0.0 mm 559 W/m2
17:25 19.7 °C 11.2 °C 1024.9 hPa NE 6.4 km/h 17.7 km/h 58% 0.0 mm 568 W/m2
17:30 19.7 °C 10.9 °C 1024.9 hPa NE 12.9 km/h 19.3 km/h 57% 0.0 mm 541 W/m2
17:35 19.6 °C 10.3 °C 1024.9 hPa North 8.0 km/h 19.3 km/h 55% 0.0 mm 471 W/m2
17:40 19.6 °C 9.7 °C 1024.9 hPa NNE 14.5 km/h 19.3 km/h 53% 0.0 mm 480 W/m2
17:45 19.3 °C 9.5 °C 1024.9 hPa NNE 4.8 km/h 17.7 km/h 53% 0.0 mm 448 W/m2
17:55 18.7 °C 10.2 °C 1024.9 hPa NNE 3.2 km/h 19.3 km/h 58% 0.0 mm 206 W/m2
18:00 18.7 °C 10.2 °C 1024.9 hPa North 17.7 km/h 17.7 km/h 58% 0.0 mm 278 W/m2
18:05 18.5 °C 9.3 °C 1024.6 hPa NE 3.2 km/h 17.7 km/h 55% 0.0 mm 294 W/m2
18:10 19.3 °C 10.9 °C 1024.6 hPa NE 9.7 km/h 17.7 km/h 58% 0.0 mm 554 W/m2
18:15 19.5 °C 10.2 °C 1024.9 hPa NNE 9.7 km/h 19.3 km/h 55% 0.0 mm 204 W/m2
18:20 18.8 °C 10.1 °C 1024.9 hPa NE 1.6 km/h 24.1 km/h 57% 0.0 mm 308 W/m2
18:25 18.8 °C 9.9 °C 1024.9 hPa NE 9.7 km/h 24.1 km/h 56% 0.0 mm 153 W/m2
18:30 18.7 °C 10.0 °C 1024.9 hPa NE 11.3 km/h 22.5 km/h 57% 0.0 mm 376 W/m2
18:40 18.5 °C 10.1 °C 1024.9 hPa North 4.8 km/h 20.9 km/h 58% 0.0 mm 388 W/m2
18:45 18.5 °C 10.1 °C 1024.9 hPa North 3.2 km/h 19.3 km/h 58% 0.0 mm 371 W/m2
18:50 18.2 °C 10.0 °C 1024.9 hPa East 8.0 km/h 19.3 km/h 59% 0.0 mm 139 W/m2
18:55 17.7 °C 9.6 °C 1024.9 hPa North 4.8 km/h 24.1 km/h 59% 0.0 mm 139 W/m2
19:00 17.5 °C 9.9 °C 1024.9 hPa NE 3.2 km/h 24.1 km/h 61% 0.0 mm 121 W/m2
19:05 17.3 °C 9.9 °C 1024.9 hPa North 3.2 km/h 17.7 km/h 62% 0.0 mm 104 W/m2
19:10 17.1 °C 9.8 °C 1024.9 hPa NNE 6.4 km/h 14.5 km/h 62% 0.0 mm 91 W/m2
19:15 17.1 °C 9.7 °C 1024.9 hPa NNE 6.4 km/h 14.5 km/h 62% 0.0 mm 100 W/m2
19:25 17.6 °C 10.2 °C 1024.9 hPa NE 8.0 km/h 14.5 km/h 62% 0.0 mm 132 W/m2
19:30 17.4 °C 9.8 °C 1024.9 hPa NNE 3.2 km/h 19.3 km/h 61% 0.0 mm 95 W/m2
19:35 17.1 °C 9.8 °C 1024.9 hPa ENE 12.9 km/h 20.9 km/h 62% 0.0 mm 84 W/m2
19:40 16.9 °C 9.8 °C 1024.9 hPa NE 3.2 km/h 20.9 km/h 63% 0.0 mm 67 W/m2
19:45 16.7 °C 9.6 °C 1024.9 hPa ENE 9.7 km/h 20.9 km/h 63% 0.0 mm 67 W/m2
19:50 16.4 °C 10.1 °C 1024.9 hPa NE 4.8 km/h 16.1 km/h 66% 0.0 mm 40 W/m2
19:55 16.1 °C 9.8 °C 1024.9 hPa NE 9.7 km/h 16.1 km/h 66% 0.0 mm 33 W/m2
20:00 15.8 °C 9.7 °C 1024.9 hPa NE 4.8 km/h 16.1 km/h 67% 0.0 mm 33 W/m2
20:10 15.5 °C 9.6 °C 1024.9 hPa NNE 6.4 km/h 17.7 km/h 68% 0.0 mm 26 W/m2
20:15 15.3 °C 9.6 °C 1024.9 hPa North 6.4 km/h 14.5 km/h 69% 0.0 mm 26 W/m2
20:20 15.0 °C 9.6 °C 1024.9 hPa NNE 14.5 km/h 14.5 km/h 70% 0.0 mm 19 W/m2
20:25 14.9 °C 9.5 °C 1024.9 hPa North 8.0 km/h 14.5 km/h 70% 0.0 mm 16 W/m2
20:30 14.9 °C 9.5 °C 1025.3 hPa North 11.3 km/h 16.1 km/h 70% 0.0 mm 14 W/m2
20:35 14.6 °C 9.6 °C 1025.3 hPa NE 4.8 km/h 17.7 km/h 72% 0.0 mm 12 W/m2
20:40 14.3 °C 9.3 °C 1025.3 hPa ENE 3.2 km/h 17.7 km/h 72% 0.0 mm 9 W/m2
20:45 14.2 °C 9.4 °C 1025.3 hPa NNE 8.0 km/h 17.7 km/h 73% 0.0 mm 5 W/m2
20:55 13.7 °C 9.4 °C 1025.6 hPa NNE 9.7 km/h 14.5 km/h 75% 0.0 mm 0 W/m2
21:05 13.3 °C 9.2 °C 1025.6 hPa NE 8.0 km/h 17.7 km/h 76% 0.0 mm 0 W/m2
21:10 13.2 °C 9.2 °C 1026.0 hPa NE 1.6 km/h 16.1 km/h 77% 0.0 mm 0 W/m2
21:15 13.1 °C 9.1 °C 1026.0 hPa NNE 4.8 km/h 16.1 km/h 77% 0.0 mm 0 W/m2
21:20 12.9 °C 9.2 °C 1026.0 hPa North 9.7 km/h 16.1 km/h 78% 0.0 mm 0 W/m2
21:25 12.8 °C 9.3 °C 1026.0 hPa NNE 11.3 km/h 17.7 km/h 79% 0.0 mm 0 W/m2
21:30 12.7 °C 9.2 °C 1026.0 hPa NNE 9.7 km/h 17.7 km/h 79% 0.0 mm 0 W/m2
21:40 12.4 °C 9.1 °C 1026.3 hPa NE 8.0 km/h 20.9 km/h 80% 0.0 mm 0 W/m2
21:45 12.2 °C 9.1 °C 1026.3 hPa NNE 4.8 km/h 20.9 km/h 81% 0.0 mm 0 W/m2
21:50 12.1 °C 8.9 °C 1026.3 hPa Calm   22.5 km/h 81% 0.0 mm 0 W/m2
21:55 11.9 °C 8.6 °C 1026.6 hPa North 6.4 km/h 22.5 km/h 80% 0.0 mm 0 W/m2
22:00 11.8 °C 8.5 °C 1026.6 hPa North 11.3 km/h 19.3 km/h 80% 0.0 mm 0 W/m2
22:05 11.8 °C 8.4 °C 1026.6 hPa NE 8.0 km/h 22.5 km/h 80% 0.0 mm 0 W/m2
22:10 11.7 °C 8.3 °C 1026.6 hPa NNE 8.0 km/h 22.5 km/h 80% 0.0 mm 0 W/m2
22:15 11.6 °C 8.0 °C 1026.6 hPa NNE 12.9 km/h 19.3 km/h 79% 0.0 mm 0 W/m2
22:25 11.2 °C 7.7 °C 1026.6 hPa ENE 3.2 km/h 17.7 km/h 79% 0.0 mm 0 W/m2
22:30 11.2 °C 7.7 °C 1027.0 hPa NNE 12.9 km/h 19.3 km/h 79% 0.0 mm 0 W/m2
22:35 11.1 °C 7.6 °C 1027.0 hPa North 9.7 km/h 19.3 km/h 79% 0.0 mm 0 W/m2
22:40 10.9 °C 7.4 °C 1027.0 hPa NE 14.5 km/h 20.9 km/h 79% 0.0 mm 0 W/m2
22:45 10.7 °C 7.2 °C 1027.0 hPa ENE 6.4 km/h 20.9 km/h 79% 0.0 mm 0 W/m2
22:50 10.6 °C 7.1 °C 1027.0 hPa NNE 8.0 km/h 17.7 km/h 79% 0.0 mm 0 W/m2
22:55 10.5 °C 7.0 °C 1027.0 hPa NNW 6.4 km/h 16.1 km/h 79% 0.0 mm 0 W/m2
23:00 10.3 °C 6.8 °C 1027.0 hPa NNE 8.0 km/h 22.5 km/h 79% 0.0 mm 0 W/m2
23:10 10.2 °C 6.9 °C 1027.0 hPa North 11.3 km/h 19.3 km/h 80% 0.0 mm 0 W/m2
23:15 10.1 °C 6.8 °C 1027.0 hPa NNE 6.4 km/h 17.7 km/h 80% 0.0 mm 0 W/m2
23:20 10.1 °C 6.8 °C 1027.0 hPa NNE 1.6 km/h 17.7 km/h 80% 0.0 mm 0 W/m2
23:25 10.0 °C 6.7 °C 1027.0 hPa North 8.0 km/h 19.3 km/h 80% 0.0 mm 0 W/m2
23:30 9.9 °C 6.8 °C 1027.0 hPa North 3.2 km/h 19.3 km/h 81% 0.0 mm 0 W/m2
23:35 9.7 °C 6.6 °C 1027.3 hPa NE 4.8 km/h 12.9 km/h 81% 0.0 mm 0 W/m2
23:40 9.4 °C 6.5 °C 1027.3 hPa Calm   12.9 km/h 82% 0.0 mm 0 W/m2
23:45 9.3 °C 6.4 °C 1027.3 hPa NNW 4.8 km/h 11.3 km/h 82% 0.0 mm 0 W/m2
23:55 9.1 °C 6.3 °C 1027.3 hPa NE 4.8 km/h 14.5 km/h 83% 0.0 mm 0 W/m2